createdAt,value
2022-08-11T00:01:15.857Z,23.97
2022-08-11T00:03:59.624Z,23.91
2022-08-11T00:06:27.908Z,23.75
2022-08-11T00:08:55.509Z,23.87
2022-08-11T00:11:23.042Z,23.68
2022-08-11T00:13:54.446Z,24.02
2022-08-11T00:16:22.718Z,23.88
2022-08-11T00:18:51.352Z,23.93
2022-08-11T00:21:19.215Z,24.04
2022-08-11T00:24:06.854Z,23.92
2022-08-11T00:26:34.345Z,23.90
2022-08-11T00:29:11.621Z,23.61
2022-08-11T00:31:39.215Z,23.79
2022-08-11T00:34:10.725Z,23.55
2022-08-11T00:36:53.907Z,23.70
2022-08-11T00:39:21.917Z,23.81
2022-08-11T00:42:17.335Z,23.73
2022-08-11T00:45:03.700Z,23.35
2022-08-11T00:47:37.009Z,23.28
2022-08-11T00:50:04.497Z,23.34
2022-08-11T00:52:51.793Z,23.71
2022-08-11T00:55:37.217Z,23.77
2022-08-11T00:58:10.656Z,23.62
2022-08-11T01:00:57.872Z,23.43
2022-08-11T01:03:49.072Z,23.59
2022-08-11T01:06:19.292Z,23.57
2022-08-11T01:08:53.457Z,23.56
2022-08-11T01:11:55.285Z,23.23
2022-08-11T01:14:33.863Z,23.42
2022-08-11T01:17:25.367Z,23.38
2022-08-11T01:20:46.457Z,23.00
2022-08-11T01:23:04.884Z,22.93
2022-08-11T01:25:46.292Z,23.18
2022-08-11T01:28:25.122Z,23.39
2022-08-11T01:30:55.339Z,23.25
2022-08-11T01:33:23.317Z,23.37
2022-08-11T01:36:03.013Z,23.40
2022-08-11T01:38:49.824Z,23.29
2022-08-11T01:41:26.264Z,23.40
2022-08-11T01:44:27.354Z,23.29
2022-08-11T01:46:57.746Z,23.23
2022-08-11T01:50:08.813Z,23.29
2022-08-11T01:52:39.334Z,23.07
2022-08-11T01:55:14.426Z,23.28
2022-08-11T01:57:47.805Z,23.31
2022-08-11T02:00:21.863Z,23.16
2022-08-11T02:02:54.192Z,23.15
2022-08-11T02:05:22.127Z,23.10
2022-08-11T02:07:52.990Z,23.10
2022-08-11T02:11:04.946Z,22.87
2022-08-11T02:13:51.256Z,23.00
2022-08-11T02:16:24.905Z,23.14
2022-08-11T02:19:14.736Z,22.84
2022-08-11T02:22:03.239Z,22.95
2022-08-11T02:24:37.326Z,22.94
2022-08-11T02:27:08.588Z,22.90
2022-08-11T02:29:49.418Z,22.74
2022-08-11T02:32:38.933Z,22.73
2022-08-11T02:35:09.489Z,22.66
2022-08-11T02:37:41.151Z,22.68
2022-08-11T02:40:11.187Z,22.69
2022-08-11T02:42:40.793Z,22.87
2022-08-11T02:45:26.869Z,22.66
2022-08-11T02:48:19.116Z,22.45
2022-08-11T02:50:49.592Z,22.37
2022-08-11T02:53:20.077Z,22.53
2022-08-11T02:55:57.810Z,22.71
2022-08-11T02:58:28.642Z,22.80
2022-08-11T03:01:11.719Z,22.81
2022-08-11T03:03:48.636Z,22.84
2022-08-11T03:06:28.898Z,23.06
2022-08-11T03:09:19.224Z,23.08
2022-08-11T03:12:11.711Z,22.92
2022-08-11T03:15:05.991Z,24.93
2022-08-11T03:17:53.109Z,25.93
2022-08-11T03:20:39.254Z,26.51
2022-08-11T03:23:19.920Z,26.42
2022-08-11T03:25:59.182Z,26.86
2022-08-11T03:28:29.816Z,27.50
2022-08-11T03:31:09.327Z,27.54
2022-08-11T03:34:08.097Z,27.34
2022-08-11T03:36:55.761Z,27.84
2022-08-11T03:39:36.166Z,28.00
2022-08-11T03:42:10.111Z,27.60
2022-08-11T03:45:00.216Z,27.16
2022-08-11T03:47:32.101Z,26.94
2022-08-11T03:50:18.335Z,27.05
2022-08-11T03:52:50.303Z,27.37
2022-08-11T03:55:28.602Z,27.79
2022-08-11T03:58:16.290Z,27.66
2022-08-11T04:01:02.490Z,27.88
2022-08-11T04:03:33.020Z,27.02
2022-08-11T04:06:08.683Z,25.21
2022-08-11T04:08:39.423Z,24.49
2022-08-11T04:11:22.613Z,24.14
2022-08-11T04:13:55.101Z,24.31
2022-08-11T04:16:22.631Z,24.08
2022-08-11T04:18:55.956Z,24.01
2022-08-11T04:21:35.268Z,24.01
2022-08-11T04:24:38.613Z,24.06
2022-08-11T04:27:14.182Z,24.60
2022-08-11T04:30:04.901Z,24.57
2022-08-11T04:32:30.176Z,24.63
2022-08-11T04:35:09.559Z,24.74
2022-08-11T04:37:37.164Z,24.86
2022-08-11T04:40:34.191Z,24.98
2022-08-11T04:43:23.701Z,25.09
2022-08-11T04:46:09.320Z,25.25
2022-08-11T04:48:55.258Z,25.42
2022-08-11T04:52:00.123Z,25.51
2022-08-11T04:54:58.380Z,25.52
2022-08-11T04:57:54.183Z,25.73
2022-08-11T05:00:40.365Z,25.73
2022-08-11T05:03:13.831Z,25.75
2022-08-11T05:05:41.234Z,25.67
2022-08-11T05:08:41.934Z,25.77
2022-08-11T05:11:24.649Z,25.95
2022-08-11T05:14:11.100Z,26.10
2022-08-11T05:17:10.659Z,26.13
2022-08-11T05:19:57.068Z,25.95
2022-08-11T05:22:47.831Z,25.99
2022-08-11T05:26:42.670Z,25.82
2022-08-11T05:28:46.688Z,26.43
2022-08-11T05:31:32.751Z,26.53
2022-08-11T05:34:32.013Z,26.54
2022-08-11T05:37:25.677Z,26.65
2022-08-11T05:40:15.172Z,26.65
2022-08-11T05:43:02.264Z,26.95
2022-08-11T05:46:02.427Z,26.90
2022-08-11T05:48:54.080Z,26.94
2022-08-11T05:51:51.954Z,26.99
2022-08-11T05:54:42.231Z,26.64
2022-08-11T05:57:09.722Z,26.91
2022-08-11T05:59:37.729Z,27.00
2022-08-11T06:02:06.145Z,27.02
2022-08-11T06:04:33.766Z,26.96
2022-08-11T06:07:08.941Z,26.75
2022-08-11T06:09:37.534Z,26.61
2022-08-11T06:12:06.760Z,26.43
2022-08-11T06:14:35.164Z,26.55
2022-08-11T06:17:03.499Z,26.61
2022-08-11T06:19:35.021Z,26.65
2022-08-11T06:22:03.026Z,26.50
2022-08-11T06:24:32.490Z,26.57
2022-08-11T06:27:15.821Z,26.55
2022-08-11T06:29:51.103Z,26.45
2022-08-11T06:32:36.163Z,26.41
2022-08-11T06:35:05.458Z,26.25
2022-08-11T06:37:42.426Z,26.37
2022-08-11T06:40:09.834Z,26.28
2022-08-11T06:42:52.401Z,26.17
2022-08-11T06:45:28.703Z,26.22
2022-08-11T06:48:00.961Z,26.31
2022-08-11T06:50:47.750Z,26.15
2022-08-11T06:53:16.563Z,26.13
2022-08-11T06:56:03.089Z,26.24
2022-08-11T06:58:51.470Z,26.20
2022-08-11T07:01:21.483Z,26.13
2022-08-11T07:03:53.048Z,26.20
2022-08-11T07:06:23.931Z,26.11
2022-08-11T07:09:19.137Z,25.91
2022-08-11T07:12:34.369Z,25.69
2022-08-11T07:15:20.700Z,25.82
2022-08-11T07:18:10.002Z,25.85
2022-08-11T07:21:01.760Z,25.51
2022-08-11T07:23:49.921Z,25.19
2022-08-11T07:26:36.061Z,25.02
2022-08-11T07:29:03.610Z,24.86
2022-08-11T07:31:50.694Z,24.87
2022-08-11T07:34:21.242Z,25.09
2022-08-11T07:36:53.011Z,25.18
2022-08-11T07:39:21.556Z,25.32
2022-08-11T07:41:49.821Z,25.36
2022-08-11T07:44:17.234Z,25.45
2022-08-11T07:47:06.959Z,25.63
2022-08-11T07:49:56.658Z,25.70
2022-08-11T07:52:31.075Z,25.96
2022-08-11T07:55:02.388Z,26.18
2022-08-11T07:58:14.278Z,26.12
2022-08-11T08:00:56.453Z,26.09
2022-08-11T08:03:53.870Z,26.17
2022-08-11T08:06:40.909Z,26.25
2022-08-11T08:09:26.977Z,26.34
2022-08-11T08:12:13.096Z,26.49
2022-08-11T08:15:00.985Z,26.51
2022-08-11T08:18:09.106Z,26.70
2022-08-11T08:20:55.076Z,26.86
2022-08-11T08:23:33.792Z,26.85
2022-08-11T08:26:02.719Z,27.10
2022-08-11T08:28:32.442Z,27.41
2022-08-11T08:31:00.250Z,27.35
2022-08-11T08:33:29.236Z,27.27
2022-08-11T08:36:11.791Z,27.42
2022-08-11T08:38:43.537Z,27.11
2022-08-11T08:41:16.317Z,28.79
2022-08-11T08:43:48.439Z,30.75
2022-08-11T08:46:16.751Z,31.65
2022-08-11T08:48:44.301Z,31.76
2022-08-11T08:52:01.492Z,31.93
2022-08-11T08:54:18.439Z,32.46
2022-08-11T08:56:46.068Z,33.00
2022-08-11T08:59:14.161Z,33.53
2022-08-11T09:01:43.528Z,34.14
2022-08-11T09:04:14.275Z,35.24
2022-08-11T09:06:43.961Z,35.62
2022-08-11T09:09:16.598Z,35.60
2022-08-11T09:11:50.350Z,36.31
2022-08-11T09:14:18.080Z,36.51
2022-08-11T09:16:45.605Z,36.71
2022-08-11T09:19:19.013Z,36.88
2022-08-11T09:22:06.753Z,37.00
2022-08-11T09:24:53.299Z,36.46
2022-08-11T09:27:20.905Z,37.10
2022-08-11T09:29:48.463Z,37.16
2022-08-11T09:32:19.162Z,37.37
2022-08-11T09:34:46.680Z,37.36
2022-08-11T09:37:55.603Z,37.19
2022-08-11T09:40:32.403Z,37.43
2022-08-11T09:43:22.246Z,37.63
2022-08-11T09:45:53.149Z,37.81
2022-08-11T09:48:21.089Z,37.87
2022-08-11T09:50:49.076Z,38.27
2022-08-11T09:53:36.198Z,38.72
2022-08-11T09:56:24.189Z,38.99
2022-08-11T09:58:51.651Z,39.18
2022-08-11T10:01:27.620Z,38.68
2022-08-11T10:04:05.965Z,38.97
2022-08-11T10:06:54.450Z,39.56
2022-08-11T10:09:24.192Z,39.00
2022-08-11T10:11:58.462Z,39.07
2022-08-11T10:14:45.355Z,39.45
2022-08-11T10:17:12.845Z,39.32
2022-08-11T10:19:40.368Z,39.28
2022-08-11T10:22:27.601Z,39.54
2022-08-11T10:25:14.587Z,39.33
2022-08-11T10:28:30.591Z,39.01
2022-08-11T10:30:53.330Z,39.58
2022-08-11T10:33:41.753Z,39.70
2022-08-11T10:36:24.914Z,39.92
2022-08-11T10:38:52.504Z,39.67
2022-08-11T10:41:38.734Z,40.12
2022-08-11T10:44:26.185Z,40.17
2022-08-11T10:47:31.892Z,40.21
2022-08-11T10:50:17.734Z,39.41
2022-08-11T10:53:04.405Z,39.59
2022-08-11T10:55:50.780Z,39.81
2022-08-11T10:58:37.130Z,39.26
2022-08-11T11:01:05.299Z,39.55
2022-08-11T11:03:34.717Z,39.86
2022-08-11T11:06:28.257Z,39.27
2022-08-11T11:09:03.660Z,39.68
2022-08-11T11:11:52.926Z,39.25
2022-08-11T11:14:46.032Z,39.89
2022-08-11T11:18:01.780Z,39.18
2022-08-11T11:20:36.420Z,39.42
2022-08-11T11:23:16.868Z,37.54
2022-08-11T11:26:13.310Z,35.36
2022-08-11T11:28:53.015Z,35.69
2022-08-11T11:31:23.601Z,35.66
2022-08-11T11:34:17.307Z,34.73
2022-08-11T11:36:51.909Z,35.19
2022-08-11T11:39:28.789Z,35.23
2022-08-11T11:41:56.975Z,34.55
2022-08-11T11:44:24.411Z,34.82
2022-08-11T11:46:52.030Z,35.36
2022-08-11T11:51:55.254Z,34.80
2022-08-11T11:54:24.153Z,34.88
2022-08-11T11:56:53.346Z,34.73
2022-08-11T11:59:39.575Z,34.34
2022-08-11T12:02:11.789Z,34.43
2022-08-11T12:04:43.621Z,34.75
2022-08-11T12:07:30.325Z,34.89
2022-08-11T12:09:57.892Z,34.46
2022-08-11T12:12:44.012Z,34.78
2022-08-11T12:15:11.807Z,35.19
2022-08-11T12:17:39.358Z,34.35
2022-08-11T12:20:31.495Z,34.60
2022-08-11T12:23:14.690Z,34.93
2022-08-11T12:26:25.196Z,34.51
2022-08-11T12:28:49.178Z,34.38
2022-08-11T12:31:16.614Z,34.78
2022-08-11T12:33:44.694Z,35.03
2022-08-11T12:36:15.862Z,34.29
2022-08-11T12:38:51.299Z,34.59
2022-08-11T12:41:38.414Z,34.71
2022-08-11T12:44:25.316Z,34.08
2022-08-11T12:46:52.798Z,34.46
2022-08-11T12:49:43.194Z,34.49
2022-08-11T12:52:15.753Z,34.55
2022-08-11T12:54:52.359Z,34.39
2022-08-11T12:57:44.848Z,34.70
2022-08-11T13:00:30.898Z,35.00
2022-08-11T13:03:17.055Z,34.00
2022-08-11T13:05:45.431Z,34.04
2022-08-11T13:08:15.947Z,35.69
2022-08-11T13:11:02.848Z,37.25
2022-08-11T13:13:54.257Z,37.57
2022-08-11T13:16:17.926Z,38.00
2022-08-11T13:18:45.600Z,38.21
2022-08-11T13:21:20.771Z,38.08
2022-08-11T13:24:01.540Z,38.56
2022-08-11T13:26:47.212Z,38.69
2022-08-11T13:29:26.943Z,39.22
2022-08-11T13:31:56.259Z,38.91
2022-08-11T13:34:24.419Z,38.56
2022-08-11T13:36:52.732Z,38.43
2022-08-11T13:39:22.908Z,38.71
2022-08-11T13:41:52.495Z,38.52
2022-08-11T13:44:25.311Z,38.36
2022-08-11T13:46:55.381Z,38.42
2022-08-11T13:49:22.742Z,38.20
2022-08-11T13:51:50.409Z,38.46
2022-08-11T13:54:44.163Z,37.98
2022-08-11T13:57:13.563Z,38.25
2022-08-11T13:59:52.321Z,38.08
2022-08-11T14:02:29.064Z,38.06
2022-08-11T14:05:16.517Z,37.88
2022-08-11T14:07:48.831Z,37.63
2022-08-11T14:10:17.564Z,37.89
2022-08-11T14:13:05.870Z,38.13
2022-08-11T14:15:33.828Z,38.17
2022-08-11T14:18:05.173Z,37.64
2022-08-11T14:20:53.362Z,37.62
2022-08-11T14:23:22.605Z,37.50
2022-08-11T14:26:08.538Z,37.35
2022-08-11T14:28:43.997Z,37.52
2022-08-11T14:31:13.240Z,37.25
2022-08-11T14:34:00.236Z,37.48
2022-08-11T14:36:34.165Z,37.46
2022-08-11T14:39:02.374Z,37.73
2022-08-11T14:42:11.802Z,37.32
2022-08-11T14:44:56.078Z,37.10
2022-08-11T14:47:25.430Z,37.18
2022-08-11T14:50:10.312Z,37.65
2022-08-11T14:52:41.380Z,37.61
2022-08-11T14:55:27.464Z,37.16
2022-08-11T14:57:57.065Z,37.49
2022-08-11T15:00:24.856Z,37.59
2022-08-11T15:03:10.931Z,37.71
2022-08-11T15:05:41.441Z,37.02
2022-08-11T15:08:08.929Z,36.70
2022-08-11T15:10:37.160Z,36.65
2022-08-11T15:13:04.589Z,36.72
2022-08-11T15:15:50.669Z,36.40
2022-08-11T15:18:18.849Z,36.54
2022-08-11T15:21:04.830Z,36.46
2022-08-11T15:23:51.072Z,36.81
2022-08-11T15:26:47.572Z,37.06
2022-08-11T15:29:34.247Z,35.02
2022-08-11T15:32:20.660Z,33.96
2022-08-11T15:35:08.928Z,33.02
2022-08-11T15:37:36.464Z,32.79
2022-08-11T15:40:33.236Z,32.59
2022-08-11T15:43:39.795Z,32.53
2022-08-11T15:46:12.110Z,32.19
2022-08-11T15:48:41.902Z,31.92
2022-08-11T15:51:12.455Z,31.92
2022-08-11T15:53:43.961Z,31.83
2022-08-11T15:56:28.090Z,31.75
2022-08-11T15:59:40.856Z,31.70
2022-08-11T16:02:20.945Z,31.79
2022-08-11T16:04:48.355Z,31.46
2022-08-11T16:07:16.315Z,31.59
2022-08-11T16:09:48.058Z,31.43
2022-08-11T16:12:28.941Z,31.32
2022-08-11T16:15:23.302Z,31.18
2022-08-11T16:17:52.280Z,31.28
2022-08-11T16:20:20.928Z,30.97
2022-08-11T16:23:00.415Z,30.98
2022-08-11T16:27:05.988Z,30.94
2022-08-11T16:28:17.077Z,30.86
2022-08-11T16:30:46.546Z,30.78
2022-08-11T16:33:22.539Z,30.65
2022-08-11T16:36:19.961Z,30.68
2022-08-11T16:38:47.445Z,30.72
2022-08-11T16:41:16.242Z,30.68
2022-08-11T16:44:03.609Z,30.52
2022-08-11T16:46:49.681Z,30.63
2022-08-11T16:49:20.498Z,30.53
2022-08-11T16:51:47.976Z,30.41
2022-08-11T16:54:15.365Z,30.43
2022-08-11T16:56:45.916Z,30.46
2022-08-11T16:59:32.267Z,30.47
2022-08-11T17:02:01.995Z,30.32
2022-08-11T17:05:07.574Z,30.32
2022-08-11T17:07:54.120Z,30.11
2022-08-11T17:10:51.662Z,30.25
2022-08-11T17:13:24.193Z,30.30
2022-08-11T17:16:06.859Z,30.06
2022-08-11T17:18:45.695Z,30.06
2022-08-11T17:21:13.399Z,29.99
2022-08-11T17:23:47.582Z,29.90
2022-08-11T17:26:18.764Z,30.00
2022-08-11T17:28:46.610Z,30.04
2022-08-11T17:31:33.094Z,29.95
2022-08-11T17:34:19.342Z,29.88
2022-08-11T17:36:47.401Z,29.90
2022-08-11T17:39:14.979Z,29.71
2022-08-11T17:42:01.162Z,29.75
2022-08-11T17:44:47.543Z,29.89
2022-08-11T17:47:33.702Z,30.21
2022-08-11T17:50:17.442Z,30.79
2022-08-11T17:53:04.295Z,30.11
2022-08-11T17:55:53.369Z,30.87
2022-08-11T17:58:39.702Z,31.08
2022-08-11T18:01:09.167Z,30.29
2022-08-11T18:03:40.024Z,31.83
2022-08-11T18:06:12.851Z,33.78
2022-08-11T18:09:00.165Z,34.93
2022-08-11T18:12:06.603Z,34.90
2022-08-11T18:14:55.481Z,35.85
2022-08-11T18:17:41.754Z,35.57
2022-08-11T18:20:27.965Z,35.07
2022-08-11T18:23:14.546Z,35.41
2022-08-11T18:26:01.878Z,35.83
2022-08-11T18:28:48.965Z,35.50
2022-08-11T18:31:35.299Z,35.06
2022-08-11T18:34:23.473Z,34.97
2022-08-11T18:37:29.146Z,35.13
2022-08-11T18:40:17.057Z,34.95
2022-08-11T18:43:03.345Z,34.66
2022-08-11T18:46:07.077Z,35.08
2022-08-11T18:48:55.121Z,34.78
2022-08-11T18:51:42.033Z,35.06
2022-08-11T18:54:28.199Z,33.46
2022-08-11T18:57:15.018Z,32.10
2022-08-11T19:00:01.249Z,31.43
2022-08-11T19:02:51.237Z,31.24
2022-08-11T19:06:35.889Z,30.88
2022-08-11T19:08:50.378Z,30.20
2022-08-11T19:11:36.532Z,29.87
2022-08-11T19:14:32.423Z,29.46
2022-08-11T19:17:43.879Z,29.21
2022-08-11T19:20:25.493Z,28.97
2022-08-11T19:23:11.751Z,29.02
2022-08-11T19:25:57.943Z,29.00
2022-08-11T19:28:43.979Z,28.94
2022-08-11T19:31:30.385Z,28.86
2022-08-11T19:34:16.449Z,28.85
2022-08-11T19:37:02.705Z,28.73
2022-08-11T19:39:49.012Z,28.73
2022-08-11T19:42:35.097Z,28.77
2022-08-11T19:45:21.272Z,28.66
2022-08-11T19:48:30.529Z,28.60
2022-08-11T19:51:13.543Z,28.70
2022-08-11T19:53:59.732Z,29.15
2022-08-11T19:56:45.768Z,29.95
2022-08-11T19:59:31.943Z,29.61
2022-08-11T20:02:18.242Z,29.56
2022-08-11T20:05:04.620Z,29.27
2022-08-11T20:07:51.164Z,28.99
2022-08-11T20:10:39.037Z,28.80
2022-08-11T20:13:26.504Z,28.73
2022-08-11T20:16:12.676Z,28.58
2022-08-11T20:18:59.868Z,28.26
2022-08-11T20:21:45.919Z,28.50
2022-08-11T20:24:32.418Z,28.24
2022-08-11T20:27:24.901Z,28.21
2022-08-11T20:30:12.018Z,28.39
2022-08-11T20:32:58.646Z,28.27
2022-08-11T20:35:44.843Z,28.36
2022-08-11T20:38:30.867Z,28.19
2022-08-11T20:41:17.140Z,28.03
2022-08-11T20:44:09.185Z,28.01
2022-08-11T20:46:57.127Z,27.85
2022-08-11T20:52:49.996Z,27.78
2022-08-11T20:55:51.749Z,27.77
2022-08-11T21:01:46.066Z,27.69
2022-08-11T21:04:32.561Z,27.51
2022-08-11T21:07:28.786Z,27.58
2022-08-11T21:10:23.688Z,27.61
2022-08-11T21:13:24.304Z,27.57
2022-08-11T21:16:25.251Z,27.51
2022-08-11T21:19:14.230Z,27.50
2022-08-11T21:22:00.844Z,27.54
2022-08-11T21:24:48.161Z,27.45
2022-08-11T21:27:34.474Z,27.54
2022-08-11T21:30:20.559Z,27.73
2022-08-11T21:33:06.594Z,27.51
2022-08-11T21:35:52.641Z,27.49
2022-08-11T21:38:38.892Z,27.52
2022-08-11T21:41:25.066Z,27.52
2022-08-11T21:44:11.175Z,27.39
2022-08-11T21:46:57.312Z,27.44
2022-08-11T21:49:43.617Z,27.23
2022-08-11T21:52:29.812Z,27.27
2022-08-11T21:55:15.917Z,27.09
2022-08-11T21:58:02.415Z,27.22
2022-08-11T22:00:48.748Z,27.43
2022-08-11T22:03:46.395Z,27.29
2022-08-11T22:06:36.393Z,27.26
2022-08-11T22:09:23.348Z,27.14
2022-08-11T22:12:34.207Z,26.98
2022-08-11T22:15:15.995Z,26.89
2022-08-11T22:18:02.609Z,27.03
2022-08-11T22:20:48.769Z,27.17
2022-08-11T22:23:35.927Z,27.10
2022-08-11T22:26:22.561Z,26.92
2022-08-11T22:29:08.616Z,26.72
2022-08-11T22:31:55.345Z,26.87
2022-08-11T22:34:51.240Z,26.99
2022-08-11T22:37:39.755Z,26.68
2022-08-11T22:40:26.847Z,26.86
2022-08-11T22:43:12.946Z,27.02
2022-08-11T22:46:01.149Z,26.87
2022-08-11T22:48:48.242Z,26.98
2022-08-11T22:51:34.317Z,26.75
2022-08-11T22:54:21.105Z,26.60
2022-08-11T22:57:07.193Z,26.57
2022-08-11T22:59:53.848Z,26.63
2022-08-11T23:02:40.107Z,26.56
2022-08-11T23:05:26.717Z,26.55
2022-08-11T23:08:13.308Z,26.78
2022-08-11T23:10:59.629Z,26.44
2022-08-11T23:13:45.750Z,26.55
2022-08-11T23:16:31.881Z,26.65
2022-08-11T23:20:06.449Z,26.59
2022-08-11T23:22:23.739Z,26.50
2022-08-11T23:25:29.576Z,26.18
2022-08-11T23:28:15.755Z,26.40
2022-08-11T23:31:01.670Z,26.25
2022-08-11T23:33:47.846Z,26.14
2022-08-11T23:36:46.479Z,26.13
2022-08-11T23:39:34.331Z,25.91
2022-08-11T23:42:21.077Z,25.85
2022-08-11T23:45:09.609Z,26.07
2022-08-11T23:47:57.952Z,25.85
2022-08-11T23:50:44.004Z,25.95
2022-08-11T23:53:31.170Z,25.97
2022-08-11T23:56:17.481Z,25.88
2022-08-11T23:59:08.553Z,25.75
